Time;durP1;ratioP1;P1;durP2;ratioP2;P2;SDS_P1;SDS_P2;PMS_P1;PMS_P2;Temp;Humidity;BMP_temperature;BMP_pressure;BME280_temperature;BME280_humidity;BME280_pressure;Samples;Min_cycle;Max_cycle;Signal;HPM_P1;HPM_P2
2022/07/10 00:00:55;;;;;;;26.05;4.15;;;13.10;99.90;;;;;;5029250;28;20013;-65
2022/07/10 00:03:23;;;;;;;33.63;4.43;;;13.10;99.90;;;;;;5022694;28;20033;-65
2022/07/10 00:05:50;;;;;;;27.98;4.80;;;13.10;99.90;;;;;;5022975;28;20048;-65
2022/07/10 00:08:18;;;;;;;26.20;5.05;;;13.00;99.90;;;;;;5024444;28;20030;-65
2022/07/10 00:10:45;;;;;;;26.27;4.30;;;12.90;99.90;;;;;;5025204;28;20002;-65
2022/07/10 00:13:12;;;;;;;24.73;3.78;;;12.70;99.90;;;;;;5022856;28;20037;-66
2022/07/10 00:15:39;;;;;;;25.80;3.67;;;12.50;99.90;;;;;;5031537;28;20014;-66
2022/07/10 00:18:07;;;;;;;27.55;4.65;;;12.40;99.90;;;;;;5027788;28;20034;-65
2022/07/10 00:20:35;;;;;;;24.23;4.20;;;12.30;99.90;;;;;;5022851;28;20045;-66
2022/07/10 00:23:02;;;;;;;24.52;4.75;;;12.30;99.90;;;;;;5028749;28;20009;-66
2022/07/10 00:25:30;;;;;;;29.00;3.75;;;12.30;99.90;;;;;;5025933;28;20018;-65
2022/07/10 00:27:57;;;;;;;28.60;5.63;;;12.30;99.90;;;;;;5027949;28;20081;-66
2022/07/10 00:30:24;;;;;;;25.88;4.13;;;12.40;99.90;;;;;;5026361;28;20023;-66
2022/07/10 00:32:52;;;;;;;28.27;5.03;;;12.40;99.90;;;;;;5031787;28;20022;-66
2022/07/10 00:35:19;;;;;;;19.30;3.83;;;12.50;99.90;;;;;;5033689;28;20014;-66
2022/07/10 00:37:46;;;;;;;27.42;4.60;;;12.70;99.90;;;;;;5035958;28;20034;-66
2022/07/10 00:40:13;;;;;;;18.23;4.07;;;12.80;99.90;;;;;;5030625;28;20041;-67
2022/07/10 00:42:40;;;;;;;30.30;4.53;;;12.80;99.90;;;;;;5027968;28;20077;-66
2022/07/10 00:45:08;;;;;;;24.02;3.70;;;13.00;99.90;;;;;;5029383;28;20034;-66
2022/07/10 00:47:36;;;;;;;19.42;2.75;;;13.10;99.90;;;;;;5021635;28;20026;-65
2022/07/10 00:50:04;;;;;;;20.73;4.32;;;13.30;99.90;;;;;;5033695;28;20021;-65
2022/07/10 00:52:33;;;;;;;25.33;3.90;;;13.40;99.90;;;;;;5032653;28;20050;-65
2022/07/10 00:55:00;;;;;;;20.58;3.15;;;13.80;99.90;;;;;;5029957;28;20073;-66
2022/07/10 00:57:27;;;;;;;20.08;3.15;;;14.20;99.90;;;;;;5033415;28;20025;-66
2022/07/10 00:59:55;;;;;;;18.95;2.60;;;14.50;99.90;;;;;;5037827;28;20045;-66
2022/07/10 01:02:22;;;;;;;23.45;3.47;;;14.50;99.90;;;;;;5039698;28;20030;-67
2022/07/10 01:04:50;;;;;;;19.75;2.92;;;14.70;99.90;;;;;;5032976;28;20037;-66
2022/07/10 01:07:17;;;;;;;22.02;4.13;;;14.90;99.90;;;;;;5025755;28;20025;-66
2022/07/10 01:09:44;;;;;;;12.68;2.25;;;15.00;99.90;;;;;;5032566;28;20018;-66
2022/07/10 01:12:12;;;;;;;13.93;2.30;;;14.80;99.90;;;;;;5040501;28;20022;-67
2022/07/10 01:14:41;;;;;;;16.23;3.08;;;14.80;99.90;;;;;;5028366;28;20022;-65
2022/07/10 01:17:10;;;;;;;18.67;3.15;;;15.10;99.90;;;;;;5027915;28;20022;-66
2022/07/10 01:19:37;;;;;;;19.73;3.40;;;15.20;99.90;;;;;;5035232;28;20014;-66
2022/07/10 01:22:05;;;;;;;19.10;3.00;;;15.20;99.90;;;;;;5033530;28;20038;-65
2022/07/10 01:24:32;;;;;;;15.00;2.60;;;15.10;99.90;;;;;;5030715;28;20040;-66
2022/07/10 01:26:59;;;;;;;17.20;3.10;;;15.10;99.90;;;;;;5032640;28;20588;-65
2022/07/10 01:29:27;;;;;;;15.60;2.25;;;15.30;99.90;;;;;;5026657;28;20081;-66
2022/07/10 01:31:54;;;;;;;16.25;2.97;;;15.40;99.90;;;;;;5033399;28;20037;-66
2022/07/10 01:34:21;;;;;;;15.52;3.00;;;15.20;99.90;;;;;;5032833;28;20033;-64
2022/07/10 01:36:49;;;;;;;20.65;2.97;;;15.10;99.90;;;;;;5035907;28;20038;-65
2022/07/10 01:39:16;;;;;;;15.63;2.85;;;15.10;99.90;;;;;;5037941;28;20034;-65
2022/07/10 01:41:43;;;;;;;16.48;3.28;;;15.00;99.90;;;;;;5034229;28;20021;-65
2022/07/10 01:44:10;;;;;;;20.23;4.25;;;14.90;99.90;;;;;;5030397;28;20022;-67
2022/07/10 01:46:48;;;;;;;18.67;3.33;;;14.80;99.90;;;;;;5034986;28;20101;-65
2022/07/10 01:49:16;;;;;;;17.35;2.72;;;14.70;99.90;;;;;;5032986;28;20033;-66
2022/07/10 01:51:43;;;;;;;21.70;3.28;;;14.40;99.90;;;;;;5030374;28;20015;-65
2022/07/10 01:54:10;;;;;;;18.90;2.65;;;14.00;99.90;;;;;;5029766;28;20030;-66
2022/07/10 01:56:38;;;;;;;16.45;2.67;;;13.90;99.90;;;;;;5036223;28;20018;-65
2022/07/10 01:59:05;;;;;;;16.13;3.15;;;13.80;99.90;;;;;;5035528;28;20046;-65
2022/07/10 02:01:33;;;;;;;13.32;2.78;;;13.60;99.90;;;;;;5038110;28;20014;-66
2022/07/10 02:06:45;;;;;;;13.00;1.70;;;13.50;99.90;;;;;;5034754;28;20036;-66
2022/07/10 02:09:14;;;;;;;13.85;2.92;;;13.70;99.90;;;;;;5036176;28;20014;-66
2022/07/10 02:11:42;;;;;;;15.07;2.60;;;13.80;99.90;;;;;;5034709;28;20034;-66
2022/07/10 02:14:09;;;;;;;11.05;1.23;;;14.20;99.90;;;;;;5033232;28;20021;-66
2022/07/10 02:16:36;;;;;;;17.40;3.20;;;14.80;99.90;;;;;;5037501;28;20029;-66
2022/07/10 02:19:04;;;;;;;12.23;2.03;;;15.30;99.90;;;;;;5037643;28;20057;-66
2022/07/10 02:21:31;;;;;;;13.23;2.28;;;15.50;99.90;;;;;;5036478;28;20046;-65
2022/07/10 02:23:58;;;;;;;11.32;1.88;;;15.80;99.90;;;;;;5034214;28;20030;-65
2022/07/10 02:26:26;;;;;;;10.15;1.88;;;16.00;99.90;;;;;;5028317;28;20046;-65
2022/07/10 02:28:53;;;;;;;8.55;2.90;;;15.70;99.90;;;;;;5032355;28;20006;-66
2022/07/10 02:31:20;;;;;;;14.95;2.10;;;15.60;99.90;;;;;;5037464;28;20013;-65
2022/07/10 02:33:47;;;;;;;18.98;3.20;;;16.20;99.90;;;;;;5031728;28;20010;-65
2022/07/10 02:36:15;;;;;;;25.80;4.00;;;16.60;99.90;;;;;;5032213;28;20022;-65
2022/07/10 02:38:42;;;;;;;19.80;3.80;;;15.80;99.90;;;;;;5031460;28;20018;-65
2022/07/10 02:41:09;;;;;;;18.10;3.88;;;15.40;99.90;;;;;;5037651;28;20014;-65
2022/07/10 02:43:37;;;;;;;20.38;2.92;;;15.20;99.90;;;;;;5029992;28;20029;-65
2022/07/10 02:46:04;;;;;;;20.23;3.75;;;16.10;99.90;;;;;;5024314;28;20026;-65
2022/07/10 02:48:32;;;;;;;10.23;1.52;;;16.40;99.90;;;;;;5027908;28;20061;-65
2022/07/10 02:50:59;;;;;;;14.45;1.83;;;16.10;99.90;;;;;;5010603;28;20023;-66
2022/07/10 02:53:26;;;;;;;14.57;1.45;;;15.60;99.90;;;;;;5015693;28;20029;-65
2022/07/10 02:55:53;;;;;;;14.18;2.75;;;15.40;99.90;;;;;;5028877;28;20037;-65
2022/07/10 02:58:21;;;;;;;13.88;1.88;;;15.30;99.90;;;;;;5028051;28;20049;-66
2022/07/10 03:00:48;;;;;;;11.23;2.90;;;15.40;99.90;;;;;;5012069;28;20474;-66
2022/07/10 03:03:17;;;;;;;14.75;2.67;;;15.50;99.90;;;;;;5028477;28;20022;-66
2022/07/10 03:05:47;;;;;;;10.88;1.15;;;15.60;99.90;;;;;;5014127;28;20041;-66
2022/07/10 03:08:14;;;;;;;14.25;2.60;;;15.50;99.90;;;;;;5022886;28;20050;-67
2022/07/10 03:10:41;;;;;;;14.18;1.70;;;15.50;99.90;;;;;;5017038;28;20021;-66
2022/07/10 03:13:09;;;;;;;14.00;2.50;;;15.50;99.90;;;;;;5027742;28;20027;-64
2022/07/10 03:15:36;;;;;;;14.52;1.85;;;15.50;99.90;;;;;;5023423;28;20030;-64
2022/07/10 03:18:03;;;;;;;13.38;2.20;;;15.60;99.90;;;;;;5036560;28;20018;-66
2022/07/10 03:20:31;;;;;;;11.70;2.05;;;16.00;99.90;;;;;;5028033;28;20010;-65
2022/07/10 03:22:58;;;;;;;8.35;1.85;;;16.30;99.90;;;;;;5033310;28;20018;-65
2022/07/10 03:25:25;;;;;;;8.40;2.00;;;15.90;99.90;;;;;;5034601;28;20041;-66
2022/07/10 03:27:52;;;;;;;9.13;2.00;;;15.60;99.90;;;;;;5036026;28;20024;-64
2022/07/10 03:30:20;;;;;;;9.88;1.13;;;15.30;99.90;;;;;;5034241;28;20029;-64
2022/07/10 03:32:47;;;;;;;2.92;0.73;;;15.00;99.90;;;;;;5038085;28;20018;-64
2022/07/10 03:35:14;;;;;;;9.00;1.13;;;14.70;99.90;;;;;;5031381;28;20025;-64
2022/07/10 03:37:42;;;;;;;2.20;0.50;;;14.70;99.90;;;;;;5032960;28;20026;-64
2022/07/10 03:40:10;;;;;;;5.93;0.75;;;14.80;99.90;;;;;;5037272;28;20106;-65
2022/07/10 03:42:37;;;;;;;4.75;0.50;;;14.80;99.90;;;;;;5030471;28;20010;-65
2022/07/10 03:45:05;;;;;;;5.78;0.98;;;15.00;99.90;;;;;;5028763;28;20033;-65
2022/07/10 03:47:32;;;;;;;9.35;2.08;;;15.10;99.90;;;;;;5028625;28;20058;-65
2022/07/10 03:50:03;;;;;;;9.43;1.20;;;15.10;99.90;;;;;;5034343;28;20026;-65
2022/07/10 03:52:30;;;;;;;9.85;1.95;;;15.20;99.90;;;;;;5033288;28;20066;-65
2022/07/10 03:54:58;;;;;;;8.98;1.55;;;15.30;99.90;;;;;;5021547;28;20018;-65
2022/07/10 04:00:11;;;;;;;9.95;1.30;;;15.30;99.90;;;;;;5032142;28;20100;-65
2022/07/10 04:02:39;;;;;;;22.25;2.67;;;15.30;99.90;;;;;;5033186;28;20030;-65
2022/07/10 04:05:10;;;;;;;10.40;1.52;;;14.80;99.90;;;;;;5035884;28;20021;-65
2022/07/10 04:07:37;;;;;;;10.00;1.60;;;14.40;99.90;;;;;;5035845;28;20057;-65
2022/07/10 04:10:05;;;;;;;9.48;1.50;;;14.00;99.90;;;;;;5026882;28;20018;-66
2022/07/10 04:12:32;;;;;;;11.93;1.90;;;13.80;99.90;;;;;;5026706;28;20033;-66
2022/07/10 04:15:00;;;;;;;13.20;1.98;;;13.80;99.90;;;;;;5030801;28;20010;-66
2022/07/10 04:17:27;;;;;;;14.80;2.30;;;13.80;99.90;;;;;;5036649;28;20014;-64
2022/07/10 04:19:54;;;;;;;10.43;1.80;;;13.80;99.90;;;;;;5033452;28;20024;-65
2022/07/10 04:22:21;;;;;;;15.82;2.92;;;13.90;99.90;;;;;;5026474;28;20017;-65
2022/07/10 04:24:50;;;;;;;11.65;2.10;;;14.00;99.90;;;;;;5030222;28;20006;-65
2022/07/10 04:27:17;;;;;;;14.18;2.92;;;14.20;99.90;;;;;;5034071;28;20041;-64
2022/07/10 04:29:45;;;;;;;21.55;3.22;;;14.30;99.90;;;;;;5030898;28;20152;-65
2022/07/10 04:32:12;;;;;;;14.23;2.10;;;14.40;99.90;;;;;;5027660;28;20014;-65
2022/07/10 04:34:39;;;;;;;8.18;1.55;;;14.40;99.90;;;;;;5019428;28;20035;-65
2022/07/10 04:37:09;;;;;;;14.88;2.33;;;14.30;99.90;;;;;;5017941;28;20023;-66
2022/07/10 04:39:38;;;;;;;12.85;3.28;;;14.10;99.90;;;;;;5031091;28;20018;-65
2022/07/10 04:42:07;;;;;;;12.10;2.35;;;13.70;99.90;;;;;;5028844;28;20058;-65
2022/07/10 04:44:36;;;;;;;13.90;1.33;;;13.30;99.90;;;;;;5028241;28;20022;-64
2022/07/10 04:47:04;;;;;;;9.15;1.52;;;12.80;99.90;;;;;;5035405;28;20057;-64
2022/07/10 04:49:31;;;;;;;8.57;1.00;;;12.40;99.90;;;;;;5031975;28;20028;-64
2022/07/10 04:51:58;;;;;;;9.15;0.98;;;12.20;99.90;;;;;;5026400;28;20018;-64
2022/07/10 04:54:26;;;;;;;5.50;1.13;;;12.10;99.90;;;;;;5031935;28;20014;-63
2022/07/10 04:56:53;;;;;;;8.63;0.93;;;12.10;99.90;;;;;;5021594;28;20046;-64
2022/07/10 04:59:20;;;;;;;7.63;1.58;;;12.20;99.90;;;;;;5023612;28;20019;-65
2022/07/10 05:01:48;;;;;;;10.52;1.08;;;12.30;99.90;;;;;;5028519;28;20090;-64
2022/07/10 05:04:15;;;;;;;5.28;1.40;;;12.50;99.90;;;;;;5029441;28;20038;-64
2022/07/10 05:06:42;;;;;;;7.32;1.25;;;12.60;99.90;;;;;;5030851;28;20022;-64
2022/07/10 05:09:09;;;;;;;9.13;0.80;;;12.60;99.90;;;;;;5031831;28;20032;-63
2022/07/10 05:11:36;;;;;;;7.70;1.48;;;12.70;99.90;;;;;;5036010;28;20026;-64
2022/07/10 05:14:04;;;;;;;8.85;0.77;;;12.80;99.90;;;;;;5032612;28;20026;-64
2022/07/10 05:16:31;;;;;;;7.35;1.20;;;12.80;99.90;;;;;;5035582;28;20026;-64
2022/07/10 05:18:58;;;;;;;9.88;1.27;;;12.90;99.90;;;;;;5032335;28;20025;-64
2022/07/10 05:21:25;;;;;;;9.70;1.77;;;13.00;99.90;;;;;;5032741;28;20006;-64
2022/07/10 05:23:53;;;;;;;9.70;1.20;;;13.10;99.90;;;;;;5025423;28;20018;-64
2022/07/10 05:26:20;;;;;;;10.50;1.85;;;13.10;99.90;;;;;;5035532;28;20073;-64
2022/07/10 05:28:47;;;;;;;16.38;2.17;;;13.20;99.90;;;;;;5028242;28;20021;-64
2022/07/10 05:31:14;;;;;;;9.15;1.42;;;13.20;99.90;;;;;;5029959;28;20026;-64
2022/07/10 05:33:43;;;;;;;11.45;2.08;;;13.30;99.90;;;;;;5027131;28;20087;-64
2022/07/10 05:36:10;;;;;;;11.00;2.03;;;13.30;99.90;;;;;;5028384;28;20025;-64
2022/07/10 05:38:37;;;;;;;12.50;2.00;;;13.30;99.90;;;;;;5028803;28;20026;-64
2022/07/10 05:41:05;;;;;;;10.98;2.40;;;13.30;99.90;;;;;;5034988;28;20014;-64
2022/07/10 05:43:32;;;;;;;17.65;2.20;;;13.40;99.90;;;;;;5028424;28;20021;-65
2022/07/10 05:45:59;;;;;;;10.93;1.75;;;13.30;99.90;;;;;;5030131;28;20084;-64
2022/07/10 05:48:26;;;;;;;15.80;2.00;;;13.10;99.90;;;;;;5026203;28;20022;-64
2022/07/10 05:50:53;;;;;;;10.35;1.30;;;13.10;99.90;;;;;;5022650;28;20017;-64
2022/07/10 05:53:21;;;;;;;10.93;1.55;;;13.10;99.90;;;;;;5038262;28;20014;-64
2022/07/10 05:55:48;;;;;;;9.85;1.40;;;13.10;99.90;;;;;;5030275;28;20034;-65
2022/07/10 05:58:16;;;;;;;7.05;1.00;;;13.20;99.90;;;;;;5023245;28;20010;-64
2022/07/10 06:00:45;;;;;;;5.28;0.77;;;13.40;99.90;;;;;;5027367;28;20014;-64
2022/07/10 06:03:13;;;;;;;7.60;1.20;;;13.50;99.90;;;;;;5027681;28;20027;-65
2022/07/10 06:05:40;;;;;;;7.43;1.55;;;13.60;99.90;;;;;;5023916;28;20056;-64
2022/07/10 06:08:08;;;;;;;8.85;1.40;;;13.70;99.90;;;;;;5030864;28;20027;-64
2022/07/10 06:10:35;;;;;;;10.63;1.17;;;13.50;99.90;;;;;;5031142;28;20037;-65
2022/07/10 06:13:02;;;;;;;10.68;1.17;;;13.30;99.90;;;;;;5029531;28;20040;-65
2022/07/10 06:15:29;;;;;;;9.68;1.67;;;13.10;99.90;;;;;;5027828;28;20026;-66
2022/07/10 06:17:59;;;;;;;8.15;1.08;;;13.00;99.90;;;;;;5035083;28;20021;-65
2022/07/10 06:20:27;;;;;;;11.02;2.25;;;12.90;99.90;;;;;;5030923;28;20036;-65
2022/07/10 06:22:54;;;;;;;14.07;1.50;;;12.90;99.90;;;;;;5028403;28;20082;-66
2022/07/10 06:25:21;;;;;;;7.38;1.10;;;12.90;99.90;;;;;;5027071;28;20026;-65
2022/07/10 06:27:48;;;;;;;13.27;2.70;;;12.90;99.90;;;;;;5030078;28;20030;-66
2022/07/10 06:30:16;;;;;;;7.57;1.10;;;12.80;99.90;;;;;;5023518;28;20033;-65
2022/07/10 06:32:44;;;;;;;8.18;1.17;;;12.60;99.90;;;;;;5020794;28;20034;-65
2022/07/10 06:35:11;;;;;;;10.38;3.42;;;12.40;99.90;;;;;;5026358;28;20054;-65
2022/07/10 06:37:38;;;;;;;14.63;5.93;;;12.40;99.90;;;;;;5035124;28;20013;-66
2022/07/10 06:40:06;;;;;;;12.65;3.90;;;12.40;99.90;;;;;;5027323;28;20033;-66
2022/07/10 06:42:34;;;;;;;11.82;1.20;;;12.50;99.90;;;;;;5029022;28;20017;-66
2022/07/10 06:45:01;;;;;;;12.48;1.70;;;12.60;99.90;;;;;;5029505;28;20044;-66
2022/07/10 06:50:13;;;;;;;13.90;2.50;;;12.70;99.90;;;;;;5023271;28;20026;-66
2022/07/10 06:52:41;;;;;;;13.73;1.75;;;13.00;99.90;;;;;;5029435;28;20105;-68
2022/07/10 06:55:09;;;;;;;15.00;2.47;;;13.10;99.90;;;;;;5029602;28;20040;-66
2022/07/10 06:57:38;;;;;;;14.27;3.00;;;12.90;99.90;;;;;;5030616;28;20006;-65
2022/07/10 07:00:06;;;;;;;14.60;1.40;;;12.90;99.90;;;;;;5023468;28;20015;-66
2022/07/10 07:02:34;;;;;;;10.57;2.20;;;12.90;99.90;;;;;;5021739;28;20018;-65
2022/07/10 07:05:01;;;;;;;7.40;1.70;;;12.80;99.90;;;;;;5015978;28;20037;-65
2022/07/10 07:07:28;;;;;;;11.20;1.70;;;12.60;99.90;;;;;;5014134;28;20011;-66
2022/07/10 07:09:55;;;;;;;9.02;2.35;;;12.60;99.90;;;;;;5029408;28;20089;-66
2022/07/10 07:12:22;;;;;;;10.35;1.40;;;12.60;99.90;;;;;;5033226;28;20026;-66
2022/07/10 07:14:50;;;;;;;19.25;2.15;;;12.50;99.90;;;;;;5029769;28;20030;-66
2022/07/10 07:17:33;;;;;;;9.43;1.95;;;12.40;99.90;;;;;;5021365;28;20030;-66
2022/07/10 07:25:32;;;;;;;8.13;1.92;;;12.20;99.90;;;;;;5013733;28;20443;-66
2022/07/10 07:27:59;;;;;;;9.57;1.77;;;12.20;99.90;;;;;;5017313;28;20033;-66
2022/07/10 07:30:27;;;;;;;11.40;2.00;;;12.20;99.90;;;;;;5019592;28;20033;-66
2022/07/10 07:32:54;;;;;;;10.20;1.70;;;12.30;99.90;;;;;;5028252;28;20085;-66
2022/07/10 07:35:21;;;;;;;7.63;2.30;;;12.30;99.90;;;;;;5022740;28;20053;-66
2022/07/10 07:37:52;;;;;;;10.73;2.97;;;12.30;99.90;;;;;;5024619;28;20018;-66
2022/07/10 07:40:23;;;;;;;11.48;3.10;;;12.30;99.90;;;;;;5028593;28;20033;-66
2022/07/10 07:42:54;;;;;;;13.57;3.25;;;12.30;99.90;;;;;;5031759;28;20030;-66
2022/07/10 07:45:22;;;;;;;13.57;2.75;;;12.30;99.90;;;;;;5027485;28;20052;-67
2022/07/10 07:47:59;;;;;;;19.92;4.22;;;12.20;99.90;;;;;;5029762;28;20050;-66
2022/07/10 07:50:35;;;;;;;13.25;2.63;;;12.40;99.90;;;;;;5026315;28;20025;-66
2022/07/10 07:53:04;;;;;;;15.50;2.72;;;12.50;99.90;;;;;;5030355;28;20030;-67
2022/07/10 07:55:32;;;;;;;14.65;3.72;;;12.40;99.90;;;;;;5024775;28;20045;-67
2022/07/10 07:58:00;;;;;;;17.13;3.03;;;12.40;99.90;;;;;;5019323;28;20036;-66
2022/07/10 08:00:29;;;;;;;16.88;3.33;;;12.30;99.90;;;;;;5023680;28;20025;-66
2022/07/10 08:02:57;;;;;;;10.73;2.83;;;12.30;99.90;;;;;;5024994;28;20034;-66
2022/07/10 08:05:25;;;;;;;11.45;2.78;;;12.30;99.90;;;;;;5026747;28;20040;-66
2022/07/10 08:07:54;;;;;;;16.63;2.28;;;12.30;99.90;;;;;;5026606;28;20049;-66
2022/07/10 08:10:26;;;;;;;13.77;3.25;;;12.30;99.90;;;;;;5028669;28;20061;-68
2022/07/10 08:12:53;;;;;;;13.38;2.22;;;12.30;99.90;;;;;;5026237;28;20044;-65
2022/07/10 08:15:24;;;;;;;17.50;2.50;;;12.20;99.90;;;;;;5026119;28;20030;-66
2022/07/10 08:17:53;;;;;;;14.80;3.75;;;12.10;99.90;;;;;;5025281;28;20116;-65
2022/07/10 08:20:21;;;;;;;15.68;3.05;;;12.10;99.90;;;;;;5024815;28;20052;-66
2022/07/10 08:22:49;;;;;;;17.67;3.85;;;12.10;99.90;;;;;;5026455;28;20026;-65
2022/07/10 08:25:17;;;;;;;16.75;3.00;;;12.10;99.90;;;;;;5017328;28;20034;-66
2022/07/10 08:27:44;;;;;;;14.95;2.83;;;12.10;99.90;;;;;;5017167;28;20089;-66
2022/07/10 08:30:12;;;;;;;11.02;3.05;;;12.00;99.90;;;;;;5022616;28;20041;-65
2022/07/10 08:32:40;;;;;;;18.30;2.80;;;12.00;99.90;;;;;;5025742;28;20033;-66
2022/07/10 08:35:09;;;;;;;12.75;3.38;;;11.90;99.90;;;;;;5010368;28;20030;-67
2022/07/10 08:37:40;;;;;;;12.25;3.17;;;11.80;99.90;;;;;;5014100;28;20033;-67
2022/07/10 08:40:14;;;;;;;11.13;2.10;;;11.70;99.90;;;;;;5024745;28;20029;-67
2022/07/10 08:42:44;;;;;;;15.90;3.22;;;11.70;99.90;;;;;;5027026;28;20022;-67
2022/07/10 08:45:12;;;;;;;12.02;3.17;;;11.70;99.90;;;;;;5024879;28;20044;-67
2022/07/10 08:47:41;;;;;;;12.73;2.80;;;11.70;99.90;;;;;;5027605;28;20176;-66
2022/07/10 08:50:23;;;;;;;10.30;3.30;;;11.70;99.90;;;;;;5026099;28;20363;-66
2022/07/10 08:53:12;;;;;;;12.88;3.22;;;11.80;99.90;;;;;;5022102;28;20058;-67
2022/07/10 08:55:40;;;;;;;7.78;2.53;;;11.90;99.90;;;;;;5015688;28;20112;-68
2022/07/10 08:58:13;;;;;;;11.85;3.50;;;11.90;99.90;;;;;;5029343;28;20510;-68
2022/07/10 09:00:40;;;;;;;16.75;3.75;;;11.90;99.90;;;;;;5025066;28;20037;-67
2022/07/10 09:03:08;;;;;;;10.80;3.30;;;11.90;99.90;;;;;;5033417;28;20041;-69
2022/07/10 09:05:36;;;;;;;13.13;4.05;;;11.80;99.90;;;;;;5018668;28;20038;-67
2022/07/10 09:08:03;;;;;;;14.15;3.78;;;11.90;99.90;;;;;;5016247;28;20061;-67
2022/07/10 09:10:31;;;;;;;15.65;4.03;;;11.90;99.90;;;;;;5018815;28;20852;-67
2022/07/10 09:13:04;;;;;;;13.13;3.70;;;11.90;99.90;;;;;;5037268;28;20014;-68
2022/07/10 09:15:32;;;;;;;11.00;3.55;;;12.00;99.90;;;;;;5026618;28;20038;-68
2022/07/10 09:18:05;;;;;;;15.25;4.85;;;11.90;99.90;;;;;;5022649;28;20021;-68
2022/07/10 09:20:37;;;;;;;12.30;4.05;;;12.00;99.90;;;;;;5025338;28;20022;-68
2022/07/10 09:23:17;;;;;;;13.57;3.85;;;11.90;99.90;;;;;;5035036;28;20042;-68
2022/07/10 09:25:47;;;;;;;15.52;4.05;;;11.90;99.90;;;;;;5026897;28;20034;-68
2022/07/10 09:28:17;;;;;;;18.83;5.40;;;11.80;99.90;;;;;;5035838;28;20026;-67
2022/07/10 09:30:45;;;;;;;15.98;5.38;;;11.80;99.90;;;;;;5017477;28;20022;-68
2022/07/10 09:33:25;;;;;;;9.32;4.15;;;11.90;99.90;;;;;;5023161;28;20085;-68
2022/07/10 09:36:05;;;;;;;13.75;4.55;;;11.90;99.90;;;;;;5032016;28;20046;-68
2022/07/10 09:38:44;;;;;;;11.88;3.28;;;12.00;99.90;;;;;;5022042;28;20022;-68
2022/07/10 09:41:14;;;;;;;18.77;3.47;;;12.00;99.90;;;;;;5027919;28;20057;-68
2022/07/10 09:43:47;;;;;;;12.90;2.08;;;12.10;99.90;;;;;;5026843;28;20049;-67
2022/07/10 09:46:15;;;;;;;11.27;3.45;;;12.10;99.90;;;;;;5032558;28;20022;-67
2022/07/10 09:48:42;;;;;;;14.85;2.67;;;12.10;99.90;;;;;;5035297;28;20037;-67
2022/07/10 09:51:11;;;;;;;8.05;2.00;;;12.10;99.90;;;;;;5038729;28;20037;-66
2022/07/10 09:53:44;;;;;;;13.75;3.25;;;12.10;99.90;;;;;;5036577;28;20077;-66
2022/07/10 09:56:13;;;;;;;13.20;3.17;;;12.10;99.90;;;;;;5028859;28;20090;-66
2022/07/10 09:58:41;;;;;;;16.58;3.45;;;12.10;99.90;;;;;;5032286;28;20018;-66
2022/07/10 10:01:09;;;;;;;12.45;3.03;;;12.10;99.90;;;;;;5038828;28;20066;-66
2022/07/10 10:03:38;;;;;;;12.00;2.10;;;12.00;99.90;;;;;;5032356;28;20034;-67
2022/07/10 10:06:17;;;;;;;9.65;1.75;;;11.90;99.90;;;;;;5022875;28;20057;-66
2022/07/10 10:08:44;;;;;;;10.60;2.22;;;11.90;99.90;;;;;;5024564;28;20046;-66
2022/07/10 10:11:17;;;;;;;12.07;2.95;;;11.80;99.90;;;;;;5025264;28;20018;-66
2022/07/10 10:13:45;;;;;;;10.82;2.05;;;11.90;99.90;;;;;;5037166;28;20029;-66
2022/07/10 10:16:13;;;;;;;11.80;2.42;;;11.90;99.90;;;;;;5030241;28;20014;-66
2022/07/10 10:21:29;;;;;;;11.30;2.35;;;11.80;99.90;;;;;;5021057;28;20095;-67
2022/07/10 10:23:57;;;;;;;13.23;1.92;;;11.80;99.90;;;;;;5037397;28;20041;-66
2022/07/10 10:26:25;;;;;;;9.90;1.98;;;11.80;99.90;;;;;;5036489;28;20053;-66
2022/07/10 10:28:53;;;;;;;6.50;1.50;;;11.80;99.90;;;;;;5032554;28;20033;-66
2022/07/10 10:31:24;;;;;;;10.90;2.17;;;11.80;99.90;;;;;;5039237;28;20014;-66
2022/07/10 10:33:55;;;;;;;15.25;2.25;;;11.80;99.90;;;;;;5039522;28;20033;-66
2022/07/10 10:36:41;;;;;;;10.85;2.15;;;11.80;99.90;;;;;;5037956;28;20026;-66
2022/07/10 10:39:16;;;;;;;11.32;1.75;;;11.80;99.90;;;;;;5022608;28;20025;-66
2022/07/10 10:41:47;;;;;;;13.98;2.67;;;11.70;99.90;;;;;;5036502;28;20065;-66
2022/07/10 10:44:18;;;;;;;12.48;3.35;;;11.70;99.90;;;;;;5029606;28;20018;-65
2022/07/10 10:46:56;;;;;;;14.75;2.25;;;11.60;99.90;;;;;;5036129;28;20050;-65
2022/07/10 10:49:25;;;;;;;9.75;1.60;;;11.60;99.90;;;;;;5035712;28;20033;-65
2022/07/10 10:52:10;;;;;;;9.57;1.83;;;11.60;99.90;;;;;;5037038;28;20034;-66
2022/07/10 10:55:07;;;;;;;15.88;3.50;;;11.60;99.90;;;;;;5024597;28;20045;-66
2022/07/10 10:57:43;;;;;;;13.57;3.03;;;11.60;99.90;;;;;;5035662;28;20029;-66
2022/07/10 11:00:14;;;;;;;11.35;3.30;;;11.60;99.90;;;;;;5017678;28;20110;-65
2022/07/10 11:02:42;;;;;;;11.13;3.15;;;11.70;99.90;;;;;;5037772;28;20018;-67
2022/07/10 11:05:18;;;;;;;13.13;3.55;;;11.70;99.90;;;;;;5038744;28;20018;-66
2022/07/10 11:07:59;;;;;;;11.55;3.10;;;11.70;99.90;;;;;;5036118;28;20036;-66
2022/07/10 11:10:38;;;;;;;13.43;2.88;;;11.70;99.90;;;;;;5036449;28;20105;-66
2022/07/10 11:13:10;;;;;;;12.43;2.75;;;11.60;99.90;;;;;;5036739;28;20707;-66
2022/07/10 11:15:42;;;;;;;10.65;3.83;;;11.50;99.90;;;;;;5037424;28;20042;-66
2022/07/10 11:18:13;;;;;;;16.17;3.15;;;11.40;99.90;;;;;;5038163;28;20018;-66
2022/07/10 11:20:44;;;;;;;8.57;2.65;;;11.40;99.90;;;;;;5018109;28;20057;-66
2022/07/10 11:23:42;;;;;;;12.77;3.13;;;11.30;99.90;;;;;;5022032;28;20014;-66
2022/07/10 11:26:16;;;;;;;13.27;2.63;;;11.20;99.90;;;;;;5034623;28;20114;-66
2022/07/10 11:28:50;;;;;;;14.90;2.53;;;11.20;99.90;;;;;;5036196;28;20021;-66
2022/07/10 11:31:18;;;;;;;;;;;11.20;99.90;;;;;;5026697;28;20038;-66
2022/07/10 11:33:48;;;;;;;11.80;2.67;;;11.10;99.90;;;;;;5024220;28;19902;-66
2022/07/10 11:36:18;;;;;;;10.68;2.38;;;11.10;99.90;;;;;;5025596;28;20040;-66
2022/07/10 11:38:46;;;;;;;10.73;2.85;;;11.10;99.90;;;;;;5029522;28;20034;-66
2022/07/10 11:41:19;;;;;;;9.55;2.40;;;10.90;99.90;;;;;;5026074;28;20053;-67
2022/07/10 11:43:57;;;;;;;12.73;2.17;;;10.90;99.90;;;;;;5021315;28;19994;-66
2022/07/10 11:46:32;;;;;;;11.15;2.63;;;10.80;99.90;;;;;;5028305;28;20052;-67
2022/07/10 11:49:05;;;;;;;8.75;2.70;;;10.80;99.90;;;;;;5029804;28;20025;-67
2022/07/10 11:51:34;;;;;;;9.75;3.53;;;10.80;99.90;;;;;;5032283;28;20022;-65
2022/07/10 11:54:10;;;;;;;9.32;3.20;;;10.80;99.90;;;;;;5030168;28;20022;-66
2022/07/10 11:56:43;;;;;;;10.45;3.22;;;10.70;99.90;;;;;;5031867;28;20025;-66
2022/07/10 11:59:11;;;;;;;8.02;2.75;;;10.80;99.90;;;;;;5031051;28;20006;-66
2022/07/10 12:01:45;;;;;;;8.50;2.63;;;10.70;99.90;;;;;;5034263;28;20006;-66
2022/07/10 12:04:15;;;;;;;9.13;3.58;;;10.80;99.90;;;;;;5035265;28;20015;-66
2022/07/10 12:06:49;;;;;;;10.63;3.78;;;10.70;99.90;;;;;;5031152;28;20061;-66
2022/07/10 12:09:19;;;;;;;8.77;4.33;;;10.70;99.90;;;;;;5029421;28;20049;-66
2022/07/10 12:12:08;;;;;;;10.32;5.65;;;10.60;99.90;;;;;;5037928;28;20255;-66
2022/07/10 12:14:36;;;;;;;9.32;4.22;;;10.70;99.90;;;;;;5033694;28;20088;-65
2022/07/10 12:17:16;;;;;;;7.18;3.65;;;10.60;99.90;;;;;;5039600;28;20033;-65
2022/07/10 12:19:45;;;;;;;15.18;4.57;;;10.70;99.90;;;;;;5035895;28;20038;-65
2022/07/10 12:22:13;;;;;;;8.88;4.40;;;10.70;99.90;;;;;;5041309;28;20029;-66
2022/07/10 12:24:42;;;;;;;11.77;4.68;;;10.70;99.90;;;;;;5042396;28;20038;-66
2022/07/10 12:27:11;;;;;;;14.55;5.05;;;10.70;99.90;;;;;;5036584;28;20018;-65
2022/07/10 12:29:39;;;;;;;8.32;3.92;;;10.70;99.90;;;;;;5037853;28;20052;-65
2022/07/10 12:32:06;;;;;;;11.10;4.03;;;10.80;99.90;;;;;;5038072;28;20020;-65
2022/07/10 12:34:46;;;;;;;13.20;3.97;;;10.80;99.90;;;;;;5041455;28;20083;-66
2022/07/10 12:37:16;;;;;;;11.95;4.93;;;10.80;99.90;;;;;;5041478;28;20042;-65
2022/07/10 12:39:53;;;;;;;10.63;4.18;;;10.80;99.90;;;;;;5040879;28;20086;-66
2022/07/10 12:42:32;;;;;;;12.23;4.28;;;10.90;99.90;;;;;;5036248;28;20010;-66
2022/07/10 12:45:12;;;;;;;13.57;4.72;;;10.80;99.90;;;;;;5038478;28;20018;-65
2022/07/10 12:47:50;;;;;;;10.68;4.10;;;10.70;99.90;;;;;;5035292;28;20065;-65
2022/07/10 12:50:18;;;;;;;15.27;4.18;;;10.60;99.90;;;;;;5040303;28;20030;-65
2022/07/10 12:52:46;;;;;;;9.20;4.55;;;10.70;99.90;;;;;;5042035;28;20014;-65
2022/07/10 12:55:15;;;;;;;11.40;4.43;;;10.80;99.90;;;;;;5041348;28;20083;-65
2022/07/10 12:57:52;;;;;;;10.88;4.63;;;10.70;99.90;;;;;;5039346;28;20069;-65
2022/07/10 13:00:35;;;;;;;17.25;5.68;;;10.70;99.90;;;;;;5035133;28;20025;-65
2022/07/10 13:03:10;;;;;;;13.57;5.35;;;10.70;99.90;;;;;;5037981;28;20026;-65
2022/07/10 13:05:38;;;;;;;12.70;5.95;;;10.70;99.90;;;;;;5036822;28;20052;-66
2022/07/10 13:08:21;;;;;;;14.48;4.70;;;10.70;99.90;;;;;;5027396;28;20050;-66